Huvudsida
METAR-TAF:

METAR-TAF

Flygplatser :

Funafuti, Tuvalu

latitud: 08-31S, longitud: 179-13E, höjd: 1 m

Aktuellt väderrapport

Denna rapport gjordes för 18 minuter sedan, klockan 06:00 UTC
Vind 7 kt från ost/sydost
Temperatur 29°C
Fuktighet 84%
Tryck 1009 hPa
Sikt 10 km eller mer
Få moln på en höjd av 1700 ft, Högtornande cumulus.
Spridda moln på en höjd av 2000 ft

METAR: NGFU 220600Z 11007KT 9999 FEW017TCU SCT020 29/26 Q1009 RESHRA

Tid: 18:18 (06:18 UTC)

Väderprognos

Denna rapport gjordes för 56 minuter sedan, klockan 05:22 UTC
Prognos gäller från 22 kl. 06 UTC till 23 kl. 06 UTC
Vind 7 kt från ost/sydost
Sikt 10 km eller mer
Få moln på en höjd av 1800 ft

TAF: NGFU 220522Z 2206/2306 12007KT 9999 FEW018

Aktuella väderrapporter och prognoser från 4000 flygplatser (METAR- och TAF-rapporter).

De tillgängliga stationerna syns som gula och röda prickar på kartan.

För musen över prickarna för att se namnen på stationerna.

Klicka sedan för att få väderrapporter och prognoser.

För att ändra kartan: Klicka på de gröna knapparna med ett svart kors på för att zooma in; den gröna knappen med ett streck på för att zooma ut; eller på de gröna pilarna för angränsande kartor.


METAR-TAF: